sensor_id;sensor_type;location;lat;lon;timestamp;P1;durP1;ratioP1;P2;durP2;ratioP2
31734;SDS011;18313;48.518;9.124;2023-06-10T00:01:16;9.88;;;6.22;;
31734;SDS011;18313;48.518;9.124;2023-06-10T00:03:44;8.65;;;5.43;;
31734;SDS011;18313;48.518;9.124;2023-06-10T00:06:11;9.10;;;5.60;;
31734;SDS011;18313;48.518;9.124;2023-06-10T00:08:38;8.45;;;5.55;;
31734;SDS011;18313;48.518;9.124;2023-06-10T00:11:06;9.77;;;5.50;;
31734;SDS011;18313;48.518;9.124;2023-06-10T00:13:33;7.85;;;5.60;;
31734;SDS011;18313;48.518;9.124;2023-06-10T00:16:00;7.78;;;5.50;;
31734;SDS011;18313;48.518;9.124;2023-06-10T00:18:27;7.18;;;5.18;;
31734;SDS011;18313;48.518;9.124;2023-06-10T00:20:57;7.60;;;5.15;;
31734;SDS011;18313;48.518;9.124;2023-06-10T00:23:30;8.30;;;5.35;;
31734;SDS011;18313;48.518;9.124;2023-06-10T00:25:58;8.40;;;5.40;;
31734;SDS011;18313;48.518;9.124;2023-06-10T00:28:26;7.72;;;5.20;;
31734;SDS011;18313;48.518;9.124;2023-06-10T00:30:53;6.47;;;4.85;;
31734;SDS011;18313;48.518;9.124;2023-06-10T00:33:20;8.68;;;5.40;;
31734;SDS011;18313;48.518;9.124;2023-06-10T00:35:48;8.48;;;5.30;;
31734;SDS011;18313;48.518;9.124;2023-06-10T00:38:15;7.88;;;5.63;;
31734;SDS011;18313;48.518;9.124;2023-06-10T00:40:42;8.95;;;5.35;;
31734;SDS011;18313;48.518;9.124;2023-06-10T00:43:09;6.38;;;5.20;;
31734;SDS011;18313;48.518;9.124;2023-06-10T00:45:36;7.10;;;5.22;;
31734;SDS011;18313;48.518;9.124;2023-06-10T00:48:03;6.78;;;5.10;;
31734;SDS011;18313;48.518;9.124;2023-06-10T00:50:31;6.90;;;4.90;;
31734;SDS011;18313;48.518;9.124;2023-06-10T00:52:58;8.60;;;5.50;;
31734;SDS011;18313;48.518;9.124;2023-06-10T00:55:26;7.10;;;5.43;;
31734;SDS011;18313;48.518;9.124;2023-06-10T00:57:53;8.10;;;5.05;;
31734;SDS011;18313;48.518;9.124;2023-06-10T01:00:20;10.13;;;5.78;;
31734;SDS011;18313;48.518;9.124;2023-06-10T01:02:48;8.35;;;5.03;;
31734;SDS011;18313;48.518;9.124;2023-06-10T01:05:16;8.43;;;5.57;;
31734;SDS011;18313;48.518;9.124;2023-06-10T01:07:45;11.10;;;5.43;;
31734;SDS011;18313;48.518;9.124;2023-06-10T01:13:10;8.48;;;5.05;;
31734;SDS011;18313;48.518;9.124;2023-06-10T01:15:40;7.38;;;5.30;;
31734;SDS011;18313;48.518;9.124;2023-06-10T01:18:09;7.95;;;5.55;;
31734;SDS011;18313;48.518;9.124;2023-06-10T01:20:42;8.77;;;5.50;;
31734;SDS011;18313;48.518;9.124;2023-06-10T01:23:10;11.18;;;5.70;;
31734;SDS011;18313;48.518;9.124;2023-06-10T01:25:39;9.35;;;5.60;;
31734;SDS011;18313;48.518;9.124;2023-06-10T01:33:39;7.05;;;5.82;;
31734;SDS011;18313;48.518;9.124;2023-06-10T01:36:09;7.50;;;5.82;;
31734;SDS011;18313;48.518;9.124;2023-06-10T01:38:45;7.53;;;5.60;;
31734;SDS011;18313;48.518;9.124;2023-06-10T01:41:14;7.90;;;5.78;;
31734;SDS011;18313;48.518;9.124;2023-06-10T01:43:44;9.73;;;6.22;;
31734;SDS011;18313;48.518;9.124;2023-06-10T01:46:13;7.80;;;5.80;;
31734;SDS011;18313;48.518;9.124;2023-06-10T01:48:41;7.57;;;5.93;;
31734;SDS011;18313;48.518;9.124;2023-06-10T01:51:08;8.27;;;6.20;;
31734;SDS011;18313;48.518;9.124;2023-06-10T01:53:35;9.48;;;6.15;;
31734;SDS011;18313;48.518;9.124;2023-06-10T01:56:02;9.05;;;6.03;;
31734;SDS011;18313;48.518;9.124;2023-06-10T01:58:29;8.60;;;6.30;;
31734;SDS011;18313;48.518;9.124;2023-06-10T02:00:57;8.25;;;6.40;;
31734;SDS011;18313;48.518;9.124;2023-06-10T02:03:24;8.23;;;5.95;;
31734;SDS011;18313;48.518;9.124;2023-06-10T02:05:51;7.60;;;6.03;;
31734;SDS011;18313;48.518;9.124;2023-06-10T02:08:19;8.40;;;5.75;;
31734;SDS011;18313;48.518;9.124;2023-06-10T02:10:46;9.23;;;5.82;;
31734;SDS011;18313;48.518;9.124;2023-06-10T02:13:13;10.63;;;6.35;;
31734;SDS011;18313;48.518;9.124;2023-06-10T02:15:40;8.27;;;6.00;;
31734;SDS011;18313;48.518;9.124;2023-06-10T02:18:07;11.32;;;6.57;;
31734;SDS011;18313;48.518;9.124;2023-06-10T02:20:34;7.22;;;5.75;;
31734;SDS011;18313;48.518;9.124;2023-06-10T02:23:02;9.00;;;6.80;;
31734;SDS011;18313;48.518;9.124;2023-06-10T02:25:29;8.82;;;6.60;;
31734;SDS011;18313;48.518;9.124;2023-06-10T02:27:57;7.18;;;5.43;;
31734;SDS011;18313;48.518;9.124;2023-06-10T02:30:24;8.73;;;6.18;;
31734;SDS011;18313;48.518;9.124;2023-06-10T02:32:51;9.15;;;5.63;;
31734;SDS011;18313;48.518;9.124;2023-06-10T02:35:19;7.68;;;6.20;;
31734;SDS011;18313;48.518;9.124;2023-06-10T02:37:46;8.65;;;5.38;;
31734;SDS011;18313;48.518;9.124;2023-06-10T02:40:13;9.43;;;6.18;;
31734;SDS011;18313;48.518;9.124;2023-06-10T02:42:40;9.48;;;6.53;;
31734;SDS011;18313;48.518;9.124;2023-06-10T02:45:08;9.35;;;6.40;;
31734;SDS011;18313;48.518;9.124;2023-06-10T02:47:37;8.88;;;6.45;;
31734;SDS011;18313;48.518;9.124;2023-06-10T02:50:06;9.63;;;6.18;;
31734;SDS011;18313;48.518;9.124;2023-06-10T02:52:33;9.02;;;6.43;;
31734;SDS011;18313;48.518;9.124;2023-06-10T02:55:00;10.32;;;6.63;;
31734;SDS011;18313;48.518;9.124;2023-06-10T02:57:28;9.05;;;6.90;;
31734;SDS011;18313;48.518;9.124;2023-06-10T02:59:55;10.82;;;6.75;;
31734;SDS011;18313;48.518;9.124;2023-06-10T03:02:22;9.35;;;6.78;;
31734;SDS011;18313;48.518;9.124;2023-06-10T03:04:55;10.35;;;6.90;;
31734;SDS011;18313;48.518;9.124;2023-06-10T03:07:22;9.20;;;7.15;;
31734;SDS011;18313;48.518;9.124;2023-06-10T03:09:50;8.77;;;7.03;;
31734;SDS011;18313;48.518;9.124;2023-06-10T03:12:17;9.32;;;7.25;;
31734;SDS011;18313;48.518;9.124;2023-06-10T03:14:44;10.35;;;7.25;;
31734;SDS011;18313;48.518;9.124;2023-06-10T03:17:11;11.30;;;7.35;;
31734;SDS011;18313;48.518;9.124;2023-06-10T03:19:38;8.75;;;6.95;;
31734;SDS011;18313;48.518;9.124;2023-06-10T03:24:37;10.20;;;7.22;;
31734;SDS011;18313;48.518;9.124;2023-06-10T03:27:07;11.73;;;6.95;;
31734;SDS011;18313;48.518;9.124;2023-06-10T03:29:35;9.32;;;6.80;;
31734;SDS011;18313;48.518;9.124;2023-06-10T03:32:02;10.20;;;7.13;;
31734;SDS011;18313;48.518;9.124;2023-06-10T03:34:29;11.40;;;6.75;;
31734;SDS011;18313;48.518;9.124;2023-06-10T03:36:57;9.32;;;6.97;;
31734;SDS011;18313;48.518;9.124;2023-06-10T03:39:25;9.73;;;7.07;;
31734;SDS011;18313;48.518;9.124;2023-06-10T03:41:55;8.05;;;6.35;;
31734;SDS011;18313;48.518;9.124;2023-06-10T03:44:26;10.50;;;7.50;;
31734;SDS011;18313;48.518;9.124;2023-06-10T03:46:54;10.27;;;6.57;;
31734;SDS011;18313;48.518;9.124;2023-06-10T03:49:22;8.75;;;6.97;;
31734;SDS011;18313;48.518;9.124;2023-06-10T03:51:52;7.70;;;6.40;;
31734;SDS011;18313;48.518;9.124;2023-06-10T03:54:20;9.85;;;6.90;;
31734;SDS011;18313;48.518;9.124;2023-06-10T03:56:47;11.65;;;7.03;;
31734;SDS011;18313;48.518;9.124;2023-06-10T03:59:14;10.32;;;6.95;;
31734;SDS011;18313;48.518;9.124;2023-06-10T04:01:41;11.38;;;7.30;;
31734;SDS011;18313;48.518;9.124;2023-06-10T04:04:11;8.60;;;7.22;;
31734;SDS011;18313;48.518;9.124;2023-06-10T04:06:41;9.02;;;6.95;;
31734;SDS011;18313;48.518;9.124;2023-06-10T04:09:10;10.75;;;7.03;;
31734;SDS011;18313;48.518;9.124;2023-06-10T04:11:37;9.95;;;7.35;;
31734;SDS011;18313;48.518;9.124;2023-06-10T04:14:04;10.45;;;7.55;;
31734;SDS011;18313;48.518;9.124;2023-06-10T04:16:31;10.63;;;7.15;;
31734;SDS011;18313;48.518;9.124;2023-06-10T04:18:59;11.77;;;7.50;;
31734;SDS011;18313;48.518;9.124;2023-06-10T04:21:27;10.02;;;7.80;;
31734;SDS011;18313;48.518;9.124;2023-06-10T04:23:54;9.68;;;7.05;;
31734;SDS011;18313;48.518;9.124;2023-06-10T04:26:21;9.80;;;7.35;;
31734;SDS011;18313;48.518;9.124;2023-06-10T04:28:48;9.45;;;7.03;;
31734;SDS011;18313;48.518;9.124;2023-06-10T04:31:15;8.13;;;6.90;;
31734;SDS011;18313;48.518;9.124;2023-06-10T04:33:42;10.32;;;7.63;;
31734;SDS011;18313;48.518;9.124;2023-06-10T04:36:10;8.60;;;7.53;;
31734;SDS011;18313;48.518;9.124;2023-06-10T04:38:37;10.23;;;7.78;;
31734;SDS011;18313;48.518;9.124;2023-06-10T04:41:04;11.73;;;8.00;;
31734;SDS011;18313;48.518;9.124;2023-06-10T04:43:31;11.35;;;8.07;;
31734;SDS011;18313;48.518;9.124;2023-06-10T04:45:58;11.25;;;8.05;;
31734;SDS011;18313;48.518;9.124;2023-06-10T04:48:26;10.70;;;8.13;;
31734;SDS011;18313;48.518;9.124;2023-06-10T04:50:53;10.52;;;8.23;;
31734;SDS011;18313;48.518;9.124;2023-06-10T04:53:20;10.63;;;7.72;;
31734;SDS011;18313;48.518;9.124;2023-06-10T04:55:47;9.57;;;7.93;;
31734;SDS011;18313;48.518;9.124;2023-06-10T04:58:14;10.85;;;7.88;;
31734;SDS011;18313;48.518;9.124;2023-06-10T05:00:42;10.35;;;7.93;;
31734;SDS011;18313;48.518;9.124;2023-06-10T05:03:10;12.60;;;7.50;;
31734;SDS011;18313;48.518;9.124;2023-06-10T05:05:37;11.02;;;7.53;;
31734;SDS011;18313;48.518;9.124;2023-06-10T05:08:05;9.55;;;7.53;;
31734;SDS011;18313;48.518;9.124;2023-06-10T05:10:34;8.45;;;6.97;;
31734;SDS011;18313;48.518;9.124;2023-06-10T05:13:01;9.73;;;7.10;;
31734;SDS011;18313;48.518;9.124;2023-06-10T05:15:29;13.48;;;7.80;;
31734;SDS011;18313;48.518;9.124;2023-06-10T05:17:57;9.02;;;6.80;;
31734;SDS011;18313;48.518;9.124;2023-06-10T05:20:29;9.88;;;7.05;;
31734;SDS011;18313;48.518;9.124;2023-06-10T05:22:56;11.73;;;7.20;;
31734;SDS011;18313;48.518;9.124;2023-06-10T05:25:25;8.45;;;6.68;;
31734;SDS011;18313;48.518;9.124;2023-06-10T05:27:52;8.73;;;7.30;;
31734;SDS011;18313;48.518;9.124;2023-06-10T05:30:19;8.38;;;6.70;;
31734;SDS011;18313;48.518;9.124;2023-06-10T05:32:48;8.82;;;6.72;;
31734;SDS011;18313;48.518;9.124;2023-06-10T05:35:15;12.68;;;6.78;;
31734;SDS011;18313;48.518;9.124;2023-06-10T05:37:42;7.95;;;6.50;;
31734;SDS011;18313;48.518;9.124;2023-06-10T05:40:10;9.43;;;6.57;;
31734;SDS011;18313;48.518;9.124;2023-06-10T05:42:37;9.98;;;6.10;;
31734;SDS011;18313;48.518;9.124;2023-06-10T05:45:05;8.27;;;6.82;;
31734;SDS011;18313;48.518;9.124;2023-06-10T05:47:33;8.75;;;6.82;;
31734;SDS011;18313;48.518;9.124;2023-06-10T05:50:01;8.27;;;6.53;;
31734;SDS011;18313;48.518;9.124;2023-06-10T05:52:29;11.75;;;6.90;;
31734;SDS011;18313;48.518;9.124;2023-06-10T05:54:55;9.45;;;6.47;;
31734;SDS011;18313;48.518;9.124;2023-06-10T05:57:22;9.75;;;6.28;;
31734;SDS011;18313;48.518;9.124;2023-06-10T05:59:50;8.20;;;6.13;;
31734;SDS011;18313;48.518;9.124;2023-06-10T06:02:17;8.23;;;5.72;;
31734;SDS011;18313;48.518;9.124;2023-06-10T06:04:44;7.45;;;5.50;;
31734;SDS011;18313;48.518;9.124;2023-06-10T06:07:11;8.38;;;5.50;;
31734;SDS011;18313;48.518;9.124;2023-06-10T06:09:39;8.23;;;5.85;;
31734;SDS011;18313;48.518;9.124;2023-06-10T06:12:06;6.53;;;5.45;;
31734;SDS011;18313;48.518;9.124;2023-06-10T06:14:37;6.75;;;5.40;;
31734;SDS011;18313;48.518;9.124;2023-06-10T06:17:07;9.18;;;5.60;;
31734;SDS011;18313;48.518;9.124;2023-06-10T06:19:34;8.13;;;5.40;;
31734;SDS011;18313;48.518;9.124;2023-06-10T06:22:01;6.93;;;5.25;;
31734;SDS011;18313;48.518;9.124;2023-06-10T06:24:29;9.38;;;5.35;;
31734;SDS011;18313;48.518;9.124;2023-06-10T06:26:57;9.02;;;5.80;;
31734;SDS011;18313;48.518;9.124;2023-06-10T06:29:24;9.98;;;5.68;;
31734;SDS011;18313;48.518;9.124;2023-06-10T06:31:51;15.02;;;6.18;;
31734;SDS011;18313;48.518;9.124;2023-06-10T06:34:19;7.05;;;5.78;;
31734;SDS011;18313;48.518;9.124;2023-06-10T06:36:46;7.57;;;5.35;;
31734;SDS011;18313;48.518;9.124;2023-06-10T06:39:13;7.68;;;5.60;;
31734;SDS011;18313;48.518;9.124;2023-06-10T06:41:40;7.63;;;5.22;;
31734;SDS011;18313;48.518;9.124;2023-06-10T06:44:07;8.70;;;5.57;;
31734;SDS011;18313;48.518;9.124;2023-06-10T06:46:34;7.43;;;5.50;;
31734;SDS011;18313;48.518;9.124;2023-06-10T06:49:01;7.20;;;5.50;;
31734;SDS011;18313;48.518;9.124;2023-06-10T06:51:29;9.15;;;5.15;;
31734;SDS011;18313;48.518;9.124;2023-06-10T06:53:56;6.65;;;5.00;;
31734;SDS011;18313;48.518;9.124;2023-06-10T06:56:25;8.05;;;4.93;;
31734;SDS011;18313;48.518;9.124;2023-06-10T06:58:53;7.82;;;5.50;;
31734;SDS011;18313;48.518;9.124;2023-06-10T07:01:23;7.05;;;5.40;;
31734;SDS011;18313;48.518;9.124;2023-06-10T07:03:50;8.43;;;5.70;;
31734;SDS011;18313;48.518;9.124;2023-06-10T07:06:18;8.23;;;5.20;;
31734;SDS011;18313;48.518;9.124;2023-06-10T07:08:45;6.38;;;5.32;;
31734;SDS011;18313;48.518;9.124;2023-06-10T07:11:12;9.02;;;5.28;;
31734;SDS011;18313;48.518;9.124;2023-06-10T07:13:39;6.43;;;5.10;;
31734;SDS011;18313;48.518;9.124;2023-06-10T07:16:08;7.68;;;5.43;;
31734;SDS011;18313;48.518;9.124;2023-06-10T07:18:35;9.57;;;5.25;;
31734;SDS011;18313;48.518;9.124;2023-06-10T07:21:02;6.50;;;4.95;;
31734;SDS011;18313;48.518;9.124;2023-06-10T07:23:29;8.50;;;5.18;;
31734;SDS011;18313;48.518;9.124;2023-06-10T07:25:56;9.18;;;5.75;;
31734;SDS011;18313;48.518;9.124;2023-06-10T07:28:24;9.15;;;5.22;;
31734;SDS011;18313;48.518;9.124;2023-06-10T07:30:51;8.05;;;5.20;;
31734;SDS011;18313;48.518;9.124;2023-06-10T07:33:18;5.80;;;4.75;;
31734;SDS011;18313;48.518;9.124;2023-06-10T07:35:45;9.95;;;5.70;;
31734;SDS011;18313;48.518;9.124;2023-06-10T07:38:12;12.05;;;6.55;;
31734;SDS011;18313;48.518;9.124;2023-06-10T07:40:39;6.65;;;4.90;;
31734;SDS011;18313;48.518;9.124;2023-06-10T07:43:06;9.82;;;5.43;;
31734;SDS011;18313;48.518;9.124;2023-06-10T07:45:34;7.85;;;5.68;;
31734;SDS011;18313;48.518;9.124;2023-06-10T07:48:01;7.78;;;5.35;;
31734;SDS011;18313;48.518;9.124;2023-06-10T07:50:29;9.30;;;4.95;;
31734;SDS011;18313;48.518;9.124;2023-06-10T07:52:56;8.00;;;5.63;;
31734;SDS011;18313;48.518;9.124;2023-06-10T07:55:23;6.53;;;4.72;;
31734;SDS011;18313;48.518;9.124;2023-06-10T07:57:52;8.32;;;5.50;;
31734;SDS011;18313;48.518;9.124;2023-06-10T08:00:20;6.65;;;5.05;;
31734;SDS011;18313;48.518;9.124;2023-06-10T08:02:47;7.78;;;5.10;;
31734;SDS011;18313;48.518;9.124;2023-06-10T08:05:15;8.25;;;5.55;;
31734;SDS011;18313;48.518;9.124;2023-06-10T08:07:42;7.43;;;5.03;;
31734;SDS011;18313;48.518;9.124;2023-06-10T08:10:10;5.82;;;4.43;;
31734;SDS011;18313;48.518;9.124;2023-06-10T08:12:37;7.15;;;4.90;;
31734;SDS011;18313;48.518;9.124;2023-06-10T08:15:04;5.68;;;4.97;;
31734;SDS011;18313;48.518;9.124;2023-06-10T08:17:32;7.10;;;4.32;;
31734;SDS011;18313;48.518;9.124;2023-06-10T08:19:59;7.78;;;4.50;;
31734;SDS011;18313;48.518;9.124;2023-06-10T08:22:27;5.43;;;4.80;;
31734;SDS011;18313;48.518;9.124;2023-06-10T08:24:55;5.72;;;4.50;;
31734;SDS011;18313;48.518;9.124;2023-06-10T08:27:22;7.80;;;4.93;;
31734;SDS011;18313;48.518;9.124;2023-06-10T08:29:50;6.93;;;4.97;;
31734;SDS011;18313;48.518;9.124;2023-06-10T08:32:17;6.05;;;4.70;;
31734;SDS011;18313;48.518;9.124;2023-06-10T08:34:44;5.85;;;4.40;;
31734;SDS011;18313;48.518;9.124;2023-06-10T08:37:11;5.50;;;4.30;;
31734;SDS011;18313;48.518;9.124;2023-06-10T08:39:38;5.85;;;4.55;;
31734;SDS011;18313;48.518;9.124;2023-06-10T08:44:45;5.65;;;4.50;;
31734;SDS011;18313;48.518;9.124;2023-06-10T08:47:13;6.47;;;4.35;;
31734;SDS011;18313;48.518;9.124;2023-06-10T08:49:45;7.05;;;4.38;;
31734;SDS011;18313;48.518;9.124;2023-06-10T08:52:17;5.35;;;4.20;;
31734;SDS011;18313;48.518;9.124;2023-06-10T08:54:59;5.72;;;4.10;;
31734;SDS011;18313;48.518;9.124;2023-06-10T08:57:29;7.53;;;4.22;;
31734;SDS011;18313;48.518;9.124;2023-06-10T08:59:57;5.53;;;4.30;;
31734;SDS011;18313;48.518;9.124;2023-06-10T09:02:25;6.20;;;4.10;;
31734;SDS011;18313;48.518;9.124;2023-06-10T09:04:53;5.28;;;4.32;;
31734;SDS011;18313;48.518;9.124;2023-06-10T09:07:23;5.90;;;4.72;;
31734;SDS011;18313;48.518;9.124;2023-06-10T09:09:51;7.60;;;4.57;;
31734;SDS011;18313;48.518;9.124;2023-06-10T09:12:20;6.47;;;4.20;;
31734;SDS011;18313;48.518;9.124;2023-06-10T09:14:47;5.50;;;4.35;;
31734;SDS011;18313;48.518;9.124;2023-06-10T09:17:14;5.18;;;3.90;;
31734;SDS011;18313;48.518;9.124;2023-06-10T09:19:42;5.40;;;4.22;;
31734;SDS011;18313;48.518;9.124;2023-06-10T09:22:11;5.22;;;3.60;;
31734;SDS011;18313;48.518;9.124;2023-06-10T09:24:38;4.63;;;3.65;;
31734;SDS011;18313;48.518;9.124;2023-06-10T09:27:07;4.50;;;3.67;;
31734;SDS011;18313;48.518;9.124;2023-06-10T09:29:51;10.20;;;3.90;;
31734;SDS011;18313;48.518;9.124;2023-06-10T09:32:20;5.95;;;3.92;;
31734;SDS011;18313;48.518;9.124;2023-06-10T09:34:48;7.13;;;3.75;;
31734;SDS011;18313;48.518;9.124;2023-06-10T09:37:22;4.47;;;3.63;;
31734;SDS011;18313;48.518;9.124;2023-06-10T09:40:06;5.72;;;3.42;;
31734;SDS011;18313;48.518;9.124;2023-06-10T09:42:37;6.07;;;3.55;;
31734;SDS011;18313;48.518;9.124;2023-06-10T09:45:06;6.15;;;3.40;;
31734;SDS011;18313;48.518;9.124;2023-06-10T09:47:33;4.30;;;3.30;;
31734;SDS011;18313;48.518;9.124;2023-06-10T09:50:01;6.10;;;3.47;;
31734;SDS011;18313;48.518;9.124;2023-06-10T09:52:28;4.15;;;3.33;;
31734;SDS011;18313;48.518;9.124;2023-06-10T09:55:00;4.82;;;3.25;;
31734;SDS011;18313;48.518;9.124;2023-06-10T09:57:31;4.75;;;2.97;;
31734;SDS011;18313;48.518;9.124;2023-06-10T10:00:03;4.68;;;3.08;;
31734;SDS011;18313;48.518;9.124;2023-06-10T10:05:33;4.57;;;2.88;;
31734;SDS011;18313;48.518;9.124;2023-06-10T10:08:00;4.75;;;3.28;;
31734;SDS011;18313;48.518;9.124;2023-06-10T10:10:27;6.05;;;3.00;;
31734;SDS011;18313;48.518;9.124;2023-06-10T10:12:56;4.88;;;2.80;;
31734;SDS011;18313;48.518;9.124;2023-06-10T10:15:25;4.07;;;2.75;;
31734;SDS011;18313;48.518;9.124;2023-06-10T10:18:00;4.80;;;3.17;;
31734;SDS011;18313;48.518;9.124;2023-06-10T10:20:33;4.05;;;3.03;;
31734;SDS011;18313;48.518;9.124;2023-06-10T10:23:03;4.15;;;2.75;;
31734;SDS011;18313;48.518;9.124;2023-06-10T10:25:34;5.85;;;2.88;;
31734;SDS011;18313;48.518;9.124;2023-06-10T10:28:06;3.90;;;3.20;;
31734;SDS011;18313;48.518;9.124;2023-06-10T10:30:49;3.40;;;2.67;;
31734;SDS011;18313;48.518;9.124;2023-06-10T10:33:18;4.30;;;2.80;;
31734;SDS011;18313;48.518;9.124;2023-06-10T10:35:49;5.60;;;2.78;;
31734;SDS011;18313;48.518;9.124;2023-06-10T10:38:18;4.95;;;2.90;;
31734;SDS011;18313;48.518;9.124;2023-06-10T10:40:45;4.22;;;3.00;;
31734;SDS011;18313;48.518;9.124;2023-06-10T10:43:14;4.53;;;3.10;;
31734;SDS011;18313;48.518;9.124;2023-06-10T10:45:42;3.55;;;2.90;;
31734;SDS011;18313;48.518;9.124;2023-06-10T10:48:12;4.32;;;3.15;;
31734;SDS011;18313;48.518;9.124;2023-06-10T10:50:41;5.05;;;3.10;;
31734;SDS011;18313;48.518;9.124;2023-06-10T10:53:08;4.43;;;2.95;;
31734;SDS011;18313;48.518;9.124;2023-06-10T10:55:36;4.60;;;2.75;;
31734;SDS011;18313;48.518;9.124;2023-06-10T11:00:32;4.18;;;2.90;;
31734;SDS011;18313;48.518;9.124;2023-06-10T11:03:04;4.53;;;2.88;;
31734;SDS011;18313;48.518;9.124;2023-06-10T11:05:41;4.40;;;3.00;;
31734;SDS011;18313;48.518;9.124;2023-06-10T11:08:15;3.50;;;2.70;;
31734;SDS011;18313;48.518;9.124;2023-06-10T11:11:17;5.07;;;2.85;;
31734;SDS011;18313;48.518;9.124;2023-06-10T11:13:59;5.47;;;3.30;;
31734;SDS011;18313;48.518;9.124;2023-06-10T11:16:40;4.53;;;2.88;;
31734;SDS011;18313;48.518;9.124;2023-06-10T11:19:08;4.35;;;2.95;;
31734;SDS011;18313;48.518;9.124;2023-06-10T11:24:26;6.43;;;3.28;;
31734;SDS011;18313;48.518;9.124;2023-06-10T11:26:54;5.60;;;2.80;;
31734;SDS011;18313;48.518;9.124;2023-06-10T11:29:54;4.07;;;2.67;;
31734;SDS011;18313;48.518;9.124;2023-06-10T11:32:45;6.90;;;3.20;;
31734;SDS011;18313;48.518;9.124;2023-06-10T11:35:19;5.18;;;3.08;;
31734;SDS011;18313;48.518;9.124;2023-06-10T11:37:47;3.55;;;2.65;;
31734;SDS011;18313;48.518;9.124;2023-06-10T11:40:15;4.47;;;2.85;;
31734;SDS011;18313;48.518;9.124;2023-06-10T11:42:42;3.50;;;2.60;;
31734;SDS011;18313;48.518;9.124;2023-06-10T11:45:14;5.65;;;2.88;;
31734;SDS011;18313;48.518;9.124;2023-06-10T11:47:54;7.53;;;3.00;;
31734;SDS011;18313;48.518;9.124;2023-06-10T11:50:29;7.00;;;2.87;;
31734;SDS011;18313;48.518;9.124;2023-06-10T11:52:57;5.63;;;2.95;;
31734;SDS011;18313;48.518;9.124;2023-06-10T11:55:25;3.67;;;2.83;;
31734;SDS011;18313;48.518;9.124;2023-06-10T11:58:13;4.63;;;2.80;;
31734;SDS011;18313;48.518;9.124;2023-06-10T12:00:50;3.47;;;2.70;;
31734;SDS011;18313;48.518;9.124;2023-06-10T12:03:20;3.83;;;2.60;;
31734;SDS011;18313;48.518;9.124;2023-06-10T12:08:32;4.18;;;2.67;;
31734;SDS011;18313;48.518;9.124;2023-06-10T12:11:07;3.20;;;2.50;;
31734;SDS011;18313;48.518;9.124;2023-06-10T12:13:34;3.40;;;2.50;;
31734;SDS011;18313;48.518;9.124;2023-06-10T12:16:08;3.60;;;2.65;;
31734;SDS011;18313;48.518;9.124;2023-06-10T12:18:36;4.22;;;2.90;;
31734;SDS011;18313;48.518;9.124;2023-06-10T12:21:03;4.32;;;2.83;;
31734;SDS011;18313;48.518;9.124;2023-06-10T12:23:59;4.95;;;2.70;;
31734;SDS011;18313;48.518;9.124;2023-06-10T12:26:38;3.90;;;2.70;;
31734;SDS011;18313;48.518;9.124;2023-06-10T12:29:16;5.25;;;2.78;;
31734;SDS011;18313;48.518;9.124;2023-06-10T12:31:52;3.42;;;2.60;;
31734;SDS011;18313;48.518;9.124;2023-06-10T12:34:39;3.58;;;2.65;;
31734;SDS011;18313;48.518;9.124;2023-06-10T12:37:10;5.65;;;2.50;;
31734;SDS011;18313;48.518;9.124;2023-06-10T12:39:41;3.97;;;2.58;;
31734;SDS011;18313;48.518;9.124;2023-06-10T12:42:09;4.07;;;2.50;;
31734;SDS011;18313;48.518;9.124;2023-06-10T12:44:40;4.40;;;2.80;;
31734;SDS011;18313;48.518;9.124;2023-06-10T12:47:10;5.05;;;2.25;;
31734;SDS011;18313;48.518;9.124;2023-06-10T12:49:41;4.15;;;2.55;;
31734;SDS011;18313;48.518;9.124;2023-06-10T12:52:08;4.20;;;2.72;;
31734;SDS011;18313;48.518;9.124;2023-06-10T12:54:35;5.97;;;2.58;;
31734;SDS011;18313;48.518;9.124;2023-06-10T12:57:02;4.07;;;2.50;;
31734;SDS011;18313;48.518;9.124;2023-06-10T12:59:29;4.75;;;2.25;;
31734;SDS011;18313;48.518;9.124;2023-06-10T13:01:58;4.60;;;2.50;;
31734;SDS011;18313;48.518;9.124;2023-06-10T13:04:25;3.70;;;2.58;;
31734;SDS011;18313;48.518;9.124;2023-06-10T13:06:53;5.95;;;2.45;;
31734;SDS011;18313;48.518;9.124;2023-06-10T13:09:21;8.07;;;2.63;;
31734;SDS011;18313;48.518;9.124;2023-06-10T13:11:48;3.38;;;2.20;;
31734;SDS011;18313;48.518;9.124;2023-06-10T13:14:15;3.42;;;2.35;;
31734;SDS011;18313;48.518;9.124;2023-06-10T13:16:42;3.20;;;2.17;;
31734;SDS011;18313;48.518;9.124;2023-06-10T13:19:11;4.18;;;2.38;;
31734;SDS011;18313;48.518;9.124;2023-06-10T13:21:38;10.65;;;3.83;;
31734;SDS011;18313;48.518;9.124;2023-06-10T13:24:07;6.10;;;2.70;;
31734;SDS011;18313;48.518;9.124;2023-06-10T13:26:34;20.13;;;6.28;;
31734;SDS011;18313;48.518;9.124;2023-06-10T13:29:00;3.72;;;2.10;;
31734;SDS011;18313;48.518;9.124;2023-06-10T13:31:28;5.70;;;2.63;;
31734;SDS011;18313;48.518;9.124;2023-06-10T13:33:55;3.53;;;2.30;;
31734;SDS011;18313;48.518;9.124;2023-06-10T13:36:22;3.50;;;2.38;;
31734;SDS011;18313;48.518;9.124;2023-06-10T13:38:50;2.92;;;2.30;;
31734;SDS011;18313;48.518;9.124;2023-06-10T13:41:17;6.05;;;2.63;;
31734;SDS011;18313;48.518;9.124;2023-06-10T13:43:44;4.72;;;2.20;;
31734;SDS011;18313;48.518;9.124;2023-06-10T13:46:12;7.13;;;3.03;;
31734;SDS011;18313;48.518;9.124;2023-06-10T13:48:39;3.22;;;2.20;;
31734;SDS011;18313;48.518;9.124;2023-06-10T13:51:06;3.33;;;2.30;;
31734;SDS011;18313;48.518;9.124;2023-06-10T13:53:35;3.10;;;2.20;;
31734;SDS011;18313;48.518;9.124;2023-06-10T13:56:02;3.00;;;2.13;;
31734;SDS011;18313;48.518;9.124;2023-06-10T13:58:29;4.63;;;2.50;;
31734;SDS011;18313;48.518;9.124;2023-06-10T14:00:56;4.90;;;2.53;;
31734;SDS011;18313;48.518;9.124;2023-06-10T14:03:24;2.88;;;2.20;;
31734;SDS011;18313;48.518;9.124;2023-06-10T14:05:51;4.18;;;2.40;;
31734;SDS011;18313;48.518;9.124;2023-06-10T14:08:18;4.78;;;2.47;;
31734;SDS011;18313;48.518;9.124;2023-06-10T14:10:46;43.42;;;9.20;;
31734;SDS011;18313;48.518;9.124;2023-06-10T14:13:13;5.68;;;2.40;;
31734;SDS011;18313;48.518;9.124;2023-06-10T14:15:40;7.60;;;2.92;;
31734;SDS011;18313;48.518;9.124;2023-06-10T14:18:07;6.22;;;2.90;;
31734;SDS011;18313;48.518;9.124;2023-06-10T14:20:34;3.88;;;2.13;;
31734;SDS011;18313;48.518;9.124;2023-06-10T14:23:01;3.45;;;2.20;;
31734;SDS011;18313;48.518;9.124;2023-06-10T14:25:28;4.00;;;2.17;;
31734;SDS011;18313;48.518;9.124;2023-06-10T14:27:55;2.63;;;1.90;;
31734;SDS011;18313;48.518;9.124;2023-06-10T14:30:22;2.75;;;2.10;;
31734;SDS011;18313;48.518;9.124;2023-06-10T14:32:49;4.57;;;2.08;;
31734;SDS011;18313;48.518;9.124;2023-06-10T14:35:16;3.00;;;2.22;;
31734;SDS011;18313;48.518;9.124;2023-06-10T14:37:43;3.00;;;2.10;;
31734;SDS011;18313;48.518;9.124;2023-06-10T14:40:10;3.08;;;2.33;;
31734;SDS011;18313;48.518;9.124;2023-06-10T14:42:37;3.28;;;2.25;;
31734;SDS011;18313;48.518;9.124;2023-06-10T14:45:05;3.03;;;2.05;;
31734;SDS011;18313;48.518;9.124;2023-06-10T14:47:33;3.70;;;2.40;;
31734;SDS011;18313;48.518;9.124;2023-06-10T14:50:00;3.72;;;2.40;;
31734;SDS011;18313;48.518;9.124;2023-06-10T14:52:27;5.93;;;2.63;;
31734;SDS011;18313;48.518;9.124;2023-06-10T14:54:54;5.68;;;2.42;;
31734;SDS011;18313;48.518;9.124;2023-06-10T14:57:21;5.57;;;2.40;;
31734;SDS011;18313;48.518;9.124;2023-06-10T14:59:48;3.35;;;2.22;;
31734;SDS011;18313;48.518;9.124;2023-06-10T15:02:15;3.75;;;2.25;;
31734;SDS011;18313;48.518;9.124;2023-06-10T15:04:42;3.17;;;2.40;;
31734;SDS011;18313;48.518;9.124;2023-06-10T15:07:09;3.53;;;2.28;;
31734;SDS011;18313;48.518;9.124;2023-06-10T15:09:36;2.90;;;2.00;;
31734;SDS011;18313;48.518;9.124;2023-06-10T15:12:04;2.67;;;2.05;;
31734;SDS011;18313;48.518;9.124;2023-06-10T15:14:32;5.13;;;2.35;;
31734;SDS011;18313;48.518;9.124;2023-06-10T15:16:59;5.28;;;2.13;;
31734;SDS011;18313;48.518;9.124;2023-06-10T15:19:26;5.80;;;2.45;;